sensor_id;sensor_type;location;lat;lon;timestamp;P1;durP1;ratioP1;P2;durP2;ratioP2
1014;SDS011;8170;48.118;11.628;2022-08-21T00:00:15;2.60;;;2.35;;
1014;SDS011;8170;48.118;11.628;2022-08-21T00:01:22;2.50;;;2.30;;
1014;SDS011;8170;48.118;11.628;2022-08-21T00:02:27;2.47;;;2.28;;
1014;SDS011;8170;48.118;11.628;2022-08-21T00:03:31;2.10;;;1.90;;
1014;SDS011;8170;48.118;11.628;2022-08-21T00:04:34;2.10;;;1.90;;
1014;SDS011;8170;48.118;11.628;2022-08-21T00:05:49;2.05;;;1.85;;
1014;SDS011;8170;48.118;11.628;2022-08-21T00:06:52;2.10;;;1.90;;
1014;SDS011;8170;48.118;11.628;2022-08-21T00:07:55;2.92;;;2.30;;
1014;SDS011;8170;48.118;11.628;2022-08-21T00:08:58;2.60;;;2.40;;
1014;SDS011;8170;48.118;11.628;2022-08-21T00:10:08;2.78;;;2.50;;
1014;SDS011;8170;48.118;11.628;2022-08-21T00:11:11;2.35;;;2.15;;
1014;SDS011;8170;48.118;11.628;2022-08-21T00:12:14;2.30;;;2.03;;
1014;SDS011;8170;48.118;11.628;2022-08-21T00:13:17;3.70;;;2.50;;
1014;SDS011;8170;48.118;11.628;2022-08-21T00:14:22;2.72;;;2.05;;
1014;SDS011;8170;48.118;11.628;2022-08-21T00:15:25;2.00;;;1.90;;
1014;SDS011;8170;48.118;11.628;2022-08-21T00:16:30;3.97;;;2.20;;
1014;SDS011;8170;48.118;11.628;2022-08-21T00:17:32;3.30;;;2.72;;
1014;SDS011;8170;48.118;11.628;2022-08-21T00:18:36;2.65;;;2.45;;
1014;SDS011;8170;48.118;11.628;2022-08-21T00:19:38;2.40;;;2.20;;
1014;SDS011;8170;48.118;11.628;2022-08-21T00:20:42;3.08;;;2.55;;
1014;SDS011;8170;48.118;11.628;2022-08-21T00:21:45;3.05;;;2.25;;
1014;SDS011;8170;48.118;11.628;2022-08-21T00:22:48;3.38;;;2.10;;
1014;SDS011;8170;48.118;11.628;2022-08-21T00:23:51;2.63;;;2.42;;
1014;SDS011;8170;48.118;11.628;2022-08-21T00:24:54;4.55;;;2.20;;
1014;SDS011;8170;48.118;11.628;2022-08-21T00:25:57;3.40;;;3.10;;
1014;SDS011;8170;48.118;11.628;2022-08-21T00:27:00;2.50;;;2.30;;
1014;SDS011;8170;48.118;11.628;2022-08-21T00:28:03;2.78;;;2.58;;
1014;SDS011;8170;48.118;11.628;2022-08-21T00:29:07;2.90;;;2.38;;
1014;SDS011;8170;48.118;11.628;2022-08-21T00:30:10;3.40;;;3.05;;
1014;SDS011;8170;48.118;11.628;2022-08-21T00:31:23;2.30;;;2.10;;
1014;SDS011;8170;48.118;11.628;2022-08-21T00:32:26;2.38;;;2.10;;
1014;SDS011;8170;48.118;11.628;2022-08-21T00:33:30;2.47;;;2.28;;
1014;SDS011;8170;48.118;11.628;2022-08-21T00:34:32;2.25;;;2.05;;
1014;SDS011;8170;48.118;11.628;2022-08-21T00:35:36;2.75;;;2.10;;
1014;SDS011;8170;48.118;11.628;2022-08-21T00:36:40;2.03;;;1.73;;
1014;SDS011;8170;48.118;11.628;2022-08-21T00:37:43;2.45;;;2.05;;
1014;SDS011;8170;48.118;11.628;2022-08-21T00:38:47;2.10;;;1.90;;
1014;SDS011;8170;48.118;11.628;2022-08-21T00:39:49;1.92;;;1.83;;
1014;SDS011;8170;48.118;11.628;2022-08-21T00:40:53;5.13;;;2.78;;
1014;SDS011;8170;48.118;11.628;2022-08-21T00:42:01;1.85;;;1.70;;
1014;SDS011;8170;48.118;11.628;2022-08-21T00:43:05;2.00;;;1.80;;
1014;SDS011;8170;48.118;11.628;2022-08-21T00:44:10;2.28;;;2.08;;
1014;SDS011;8170;48.118;11.628;2022-08-21T00:45:18;1.65;;;1.48;;
1014;SDS011;8170;48.118;11.628;2022-08-21T00:46:20;1.95;;;1.73;;
1014;SDS011;8170;48.118;11.628;2022-08-21T00:47:28;2.20;;;2.00;;
1014;SDS011;8170;48.118;11.628;2022-08-21T00:48:31;2.17;;;1.98;;
1014;SDS011;8170;48.118;11.628;2022-08-21T00:49:34;1.88;;;1.65;;
1014;SDS011;8170;48.118;11.628;2022-08-21T00:50:38;2.45;;;2.25;;
1014;SDS011;8170;48.118;11.628;2022-08-21T00:51:47;6.25;;;2.17;;
1014;SDS011;8170;48.118;11.628;2022-08-21T00:52:51;2.40;;;2.20;;
1014;SDS011;8170;48.118;11.628;2022-08-21T00:53:56;3.17;;;2.15;;
1014;SDS011;8170;48.118;11.628;2022-08-21T00:55:04;2.40;;;2.20;;
1014;SDS011;8170;48.118;11.628;2022-08-21T00:56:10;2.33;;;2.13;;
1014;SDS011;8170;48.118;11.628;2022-08-21T00:57:16;2.17;;;2.00;;
1014;SDS011;8170;48.118;11.628;2022-08-21T00:58:24;2.25;;;2.05;;
1014;SDS011;8170;48.118;11.628;2022-08-21T00:59:29;2.20;;;1.80;;
1014;SDS011;8170;48.118;11.628;2022-08-21T01:00:37;3.33;;;2.30;;
1014;SDS011;8170;48.118;11.628;2022-08-21T01:01:41;1.80;;;1.70;;
1014;SDS011;8170;48.118;11.628;2022-08-21T01:02:45;2.25;;;2.05;;
1014;SDS011;8170;48.118;11.628;2022-08-21T01:03:47;1.92;;;1.80;;
1014;SDS011;8170;48.118;11.628;2022-08-21T01:04:50;2.30;;;1.77;;
1014;SDS011;8170;48.118;11.628;2022-08-21T01:05:53;5.35;;;1.95;;
1014;SDS011;8170;48.118;11.628;2022-08-21T01:06:56;1.80;;;1.70;;
1014;SDS011;8170;48.118;11.628;2022-08-21T01:07:59;2.00;;;1.80;;
1014;SDS011;8170;48.118;11.628;2022-08-21T01:09:02;2.38;;;2.05;;
1014;SDS011;8170;48.118;11.628;2022-08-21T01:10:05;2.97;;;2.10;;
1014;SDS011;8170;48.118;11.628;2022-08-21T01:11:16;2.08;;;1.90;;
1014;SDS011;8170;48.118;11.628;2022-08-21T01:12:20;2.05;;;1.85;;
1014;SDS011;8170;48.118;11.628;2022-08-21T01:13:25;2.20;;;2.00;;
1014;SDS011;8170;48.118;11.628;2022-08-21T01:14:29;2.08;;;1.88;;
1014;SDS011;8170;48.118;11.628;2022-08-21T01:15:33;2.90;;;2.33;;
1014;SDS011;8170;48.118;11.628;2022-08-21T01:16:39;3.35;;;1.88;;
1014;SDS011;8170;48.118;11.628;2022-08-21T01:17:44;1.60;;;1.50;;
1014;SDS011;8170;48.118;11.628;2022-08-21T01:18:46;1.88;;;1.77;;
1014;SDS011;8170;48.118;11.628;2022-08-21T01:19:50;2.00;;;1.80;;
1014;SDS011;8170;48.118;11.628;2022-08-21T01:21:01;1.95;;;1.70;;
1014;SDS011;8170;48.118;11.628;2022-08-21T01:22:15;2.28;;;2.00;;
1014;SDS011;8170;48.118;11.628;2022-08-21T01:23:17;2.22;;;2.03;;
1014;SDS011;8170;48.118;11.628;2022-08-21T01:24:20;2.33;;;2.13;;
1014;SDS011;8170;48.118;11.628;2022-08-21T01:25:23;2.30;;;1.90;;
1014;SDS011;8170;48.118;11.628;2022-08-21T01:26:27;4.45;;;2.00;;
1014;SDS011;8170;48.118;11.628;2022-08-21T01:27:35;3.20;;;2.65;;
1014;SDS011;8170;48.118;11.628;2022-08-21T01:28:38;2.33;;;1.80;;
1014;SDS011;8170;48.118;11.628;2022-08-21T01:29:45;2.10;;;1.92;;
1014;SDS011;8170;48.118;11.628;2022-08-21T01:30:53;2.38;;;2.00;;
1014;SDS011;8170;48.118;11.628;2022-08-21T01:31:56;2.85;;;1.95;;
1014;SDS011;8170;48.118;11.628;2022-08-21T01:32:59;2.10;;;1.55;;
1014;SDS011;8170;48.118;11.628;2022-08-21T01:34:02;2.10;;;1.73;;
1014;SDS011;8170;48.118;11.628;2022-08-21T01:35:06;2.22;;;1.90;;
1014;SDS011;8170;48.118;11.628;2022-08-21T01:36:10;2.20;;;2.00;;
1014;SDS011;8170;48.118;11.628;2022-08-21T01:37:13;2.20;;;2.00;;
1014;SDS011;8170;48.118;11.628;2022-08-21T01:38:18;1.65;;;1.55;;
1014;SDS011;8170;48.118;11.628;2022-08-21T01:39:21;2.50;;;2.30;;
1014;SDS011;8170;48.118;11.628;2022-08-21T01:40:23;2.40;;;1.88;;
1014;SDS011;8170;48.118;11.628;2022-08-21T01:41:27;2.00;;;1.80;;
1014;SDS011;8170;48.118;11.628;2022-08-21T01:42:29;1.80;;;1.58;;
1014;SDS011;8170;48.118;11.628;2022-08-21T01:43:32;1.60;;;1.50;;
1014;SDS011;8170;48.118;11.628;2022-08-21T01:44:40;4.57;;;2.00;;
1014;SDS011;8170;48.118;11.628;2022-08-21T01:45:43;2.10;;;1.75;;
1014;SDS011;8170;48.118;11.628;2022-08-21T01:46:46;2.90;;;1.92;;
1014;SDS011;8170;48.118;11.628;2022-08-21T01:47:49;4.45;;;2.00;;
1014;SDS011;8170;48.118;11.628;2022-08-21T01:48:51;2.40;;;2.20;;
1014;SDS011;8170;48.118;11.628;2022-08-21T01:49:55;3.47;;;1.65;;
1014;SDS011;8170;48.118;11.628;2022-08-21T01:50:57;2.10;;;1.90;;
1014;SDS011;8170;48.118;11.628;2022-08-21T01:52:02;2.13;;;1.48;;
1014;SDS011;8170;48.118;11.628;2022-08-21T01:53:05;2.50;;;2.30;;
1014;SDS011;8170;48.118;11.628;2022-08-21T01:54:08;2.20;;;1.75;;
1014;SDS011;8170;48.118;11.628;2022-08-21T01:55:14;2.17;;;2.00;;
1014;SDS011;8170;48.118;11.628;2022-08-21T01:56:19;1.50;;;1.40;;
1014;SDS011;8170;48.118;11.628;2022-08-21T01:57:21;1.90;;;1.80;;
1014;SDS011;8170;48.118;11.628;2022-08-21T01:58:26;2.10;;;1.90;;
1014;SDS011;8170;48.118;11.628;2022-08-21T01:59:28;2.72;;;2.20;;
1014;SDS011;8170;48.118;11.628;2022-08-21T02:00:32;1.90;;;1.80;;
1014;SDS011;8170;48.118;11.628;2022-08-21T02:01:35;1.70;;;1.60;;
1014;SDS011;8170;48.118;11.628;2022-08-21T02:02:40;2.10;;;1.90;;
1014;SDS011;8170;48.118;11.628;2022-08-21T02:03:43;2.08;;;1.90;;
1014;SDS011;8170;48.118;11.628;2022-08-21T02:04:46;2.47;;;1.80;;
1014;SDS011;8170;48.118;11.628;2022-08-21T02:05:49;2.20;;;2.00;;
1014;SDS011;8170;48.118;11.628;2022-08-21T02:06:52;1.60;;;1.50;;
1014;SDS011;8170;48.118;11.628;2022-08-21T02:07:55;2.60;;;2.00;;
1014;SDS011;8170;48.118;11.628;2022-08-21T02:08:59;3.10;;;2.42;;
1014;SDS011;8170;48.118;11.628;2022-08-21T02:10:01;2.10;;;1.90;;
1014;SDS011;8170;48.118;11.628;2022-08-21T02:11:04;2.15;;;1.95;;
1014;SDS011;8170;48.118;11.628;2022-08-21T02:12:07;2.40;;;2.05;;
1014;SDS011;8170;48.118;11.628;2022-08-21T02:13:10;2.53;;;1.67;;
1014;SDS011;8170;48.118;11.628;2022-08-21T02:14:14;2.13;;;1.80;;
1014;SDS011;8170;48.118;11.628;2022-08-21T02:15:33;2.38;;;2.17;;
1014;SDS011;8170;48.118;11.628;2022-08-21T02:16:37;1.90;;;1.80;;
1014;SDS011;8170;48.118;11.628;2022-08-21T02:17:40;2.10;;;1.90;;
1014;SDS011;8170;48.118;11.628;2022-08-21T02:18:45;2.55;;;2.00;;
1014;SDS011;8170;48.118;11.628;2022-08-21T02:19:48;1.55;;;1.45;;
1014;SDS011;8170;48.118;11.628;2022-08-21T02:20:51;1.80;;;1.70;;
1014;SDS011;8170;48.118;11.628;2022-08-21T02:21:56;1.80;;;1.70;;
1014;SDS011;8170;48.118;11.628;2022-08-21T02:23:01;1.70;;;1.60;;
1014;SDS011;8170;48.118;11.628;2022-08-21T02:24:03;2.03;;;1.85;;
1014;SDS011;8170;48.118;11.628;2022-08-21T02:25:07;2.55;;;2.30;;
1014;SDS011;8170;48.118;11.628;2022-08-21T02:26:09;2.38;;;1.92;;
1014;SDS011;8170;48.118;11.628;2022-08-21T02:27:13;3.22;;;1.77;;
1014;SDS011;8170;48.118;11.628;2022-08-21T02:28:15;2.00;;;1.85;;
1014;SDS011;8170;48.118;11.628;2022-08-21T02:29:19;4.00;;;1.85;;
1014;SDS011;8170;48.118;11.628;2022-08-21T02:30:22;2.28;;;2.08;;
1014;SDS011;8170;48.118;11.628;2022-08-21T02:31:27;2.20;;;2.00;;
1014;SDS011;8170;48.118;11.628;2022-08-21T02:32:30;2.60;;;1.90;;
1014;SDS011;8170;48.118;11.628;2022-08-21T02:33:33;2.58;;;2.17;;
1014;SDS011;8170;48.118;11.628;2022-08-21T02:34:36;2.00;;;1.80;;
1014;SDS011;8170;48.118;11.628;2022-08-21T02:35:39;2.55;;;2.35;;
1014;SDS011;8170;48.118;11.628;2022-08-21T02:36:43;2.42;;;2.22;;
1014;SDS011;8170;48.118;11.628;2022-08-21T02:38:02;2.65;;;2.45;;
1014;SDS011;8170;48.118;11.628;2022-08-21T02:39:06;2.08;;;1.88;;
1014;SDS011;8170;48.118;11.628;2022-08-21T02:40:10;2.10;;;1.90;;
1014;SDS011;8170;48.118;11.628;2022-08-21T02:41:13;2.83;;;2.38;;
1014;SDS011;8170;48.118;11.628;2022-08-21T02:42:18;2.60;;;2.40;;
1014;SDS011;8170;48.118;11.628;2022-08-21T02:43:21;1.95;;;1.75;;
1014;SDS011;8170;48.118;11.628;2022-08-21T02:44:25;2.20;;;1.85;;
1014;SDS011;8170;48.118;11.628;2022-08-21T02:45:35;2.55;;;2.33;;
1014;SDS011;8170;48.118;11.628;2022-08-21T02:46:39;2.50;;;2.00;;
1014;SDS011;8170;48.118;11.628;2022-08-21T02:47:46;2.28;;;1.92;;
1014;SDS011;8170;48.118;11.628;2022-08-21T02:48:50;2.35;;;1.80;;
1014;SDS011;8170;48.118;11.628;2022-08-21T02:49:52;3.53;;;2.15;;
1014;SDS011;8170;48.118;11.628;2022-08-21T02:50:56;3.05;;;1.92;;
1014;SDS011;8170;48.118;11.628;2022-08-21T02:52:00;2.20;;;2.00;;
1014;SDS011;8170;48.118;11.628;2022-08-21T02:53:05;2.38;;;2.17;;
1014;SDS011;8170;48.118;11.628;2022-08-21T02:54:08;3.05;;;2.10;;
1014;SDS011;8170;48.118;11.628;2022-08-21T02:55:11;1.90;;;1.80;;
1014;SDS011;8170;48.118;11.628;2022-08-21T02:56:16;1.88;;;1.77;;
1014;SDS011;8170;48.118;11.628;2022-08-21T02:57:21;2.10;;;2.00;;
1014;SDS011;8170;48.118;11.628;2022-08-21T02:58:24;1.98;;;1.73;;
1014;SDS011;8170;48.118;11.628;2022-08-21T02:59:29;5.90;;;2.60;;
1014;SDS011;8170;48.118;11.628;2022-08-21T03:00:31;2.15;;;1.92;;
1014;SDS011;8170;48.118;11.628;2022-08-21T03:01:35;2.03;;;1.55;;
1014;SDS011;8170;48.118;11.628;2022-08-21T03:02:39;2.70;;;2.08;;
1014;SDS011;8170;48.118;11.628;2022-08-21T03:03:42;2.00;;;1.80;;
1014;SDS011;8170;48.118;11.628;2022-08-21T03:04:47;2.13;;;1.90;;
1014;SDS011;8170;48.118;11.628;2022-08-21T03:05:50;1.98;;;1.88;;
1014;SDS011;8170;48.118;11.628;2022-08-21T03:06:54;3.10;;;2.40;;
1014;SDS011;8170;48.118;11.628;2022-08-21T03:07:56;2.55;;;2.35;;
1014;SDS011;8170;48.118;11.628;2022-08-21T03:09:02;3.28;;;2.17;;
1014;SDS011;8170;48.118;11.628;2022-08-21T03:10:06;2.17;;;1.98;;
1014;SDS011;8170;48.118;11.628;2022-08-21T03:11:09;2.67;;;1.90;;
1014;SDS011;8170;48.118;11.628;2022-08-21T03:12:14;1.80;;;1.70;;
1014;SDS011;8170;48.118;11.628;2022-08-21T03:13:17;3.15;;;2.40;;
1014;SDS011;8170;48.118;11.628;2022-08-21T03:14:21;2.42;;;2.20;;
1014;SDS011;8170;48.118;11.628;2022-08-21T03:15:23;4.65;;;2.40;;
1014;SDS011;8170;48.118;11.628;2022-08-21T03:16:27;2.63;;;2.42;;
1014;SDS011;8170;48.118;11.628;2022-08-21T03:17:35;3.28;;;2.70;;
1014;SDS011;8170;48.118;11.628;2022-08-21T03:18:38;2.40;;;2.20;;
1014;SDS011;8170;48.118;11.628;2022-08-21T03:19:40;2.40;;;2.08;;
1014;SDS011;8170;48.118;11.628;2022-08-21T03:20:44;2.78;;;2.58;;
1014;SDS011;8170;48.118;11.628;2022-08-21T03:21:47;2.30;;;2.10;;
1014;SDS011;8170;48.118;11.628;2022-08-21T03:22:50;1.85;;;1.75;;
1014;SDS011;8170;48.118;11.628;2022-08-21T03:23:56;5.00;;;2.53;;
1014;SDS011;8170;48.118;11.628;2022-08-21T03:25:06;2.83;;;2.63;;
1014;SDS011;8170;48.118;11.628;2022-08-21T03:26:12;2.45;;;2.25;;
1014;SDS011;8170;48.118;11.628;2022-08-21T03:27:16;2.90;;;2.70;;
1014;SDS011;8170;48.118;11.628;2022-08-21T03:28:20;2.65;;;2.45;;
1014;SDS011;8170;48.118;11.628;2022-08-21T03:29:24;2.35;;;2.15;;
1014;SDS011;8170;48.118;11.628;2022-08-21T03:30:26;2.22;;;1.70;;
1014;SDS011;8170;48.118;11.628;2022-08-21T03:31:29;2.60;;;2.40;;
1014;SDS011;8170;48.118;11.628;2022-08-21T03:32:32;2.72;;;2.22;;
1014;SDS011;8170;48.118;11.628;2022-08-21T03:33:36;2.15;;;1.95;;
1014;SDS011;8170;48.118;11.628;2022-08-21T03:34:40;2.28;;;2.08;;
1014;SDS011;8170;48.118;11.628;2022-08-21T03:35:44;1.80;;;1.70;;
1014;SDS011;8170;48.118;11.628;2022-08-21T03:36:48;2.60;;;2.40;;
1014;SDS011;8170;48.118;11.628;2022-08-21T03:37:52;2.30;;;2.10;;
1014;SDS011;8170;48.118;11.628;2022-08-21T03:38:55;3.28;;;2.50;;
1014;SDS011;8170;48.118;11.628;2022-08-21T03:39:58;1.90;;;1.75;;
1014;SDS011;8170;48.118;11.628;2022-08-21T03:41:02;1.90;;;1.80;;
1014;SDS011;8170;48.118;11.628;2022-08-21T03:42:08;2.55;;;2.35;;
1014;SDS011;8170;48.118;11.628;2022-08-21T03:43:11;2.13;;;1.92;;
1014;SDS011;8170;48.118;11.628;2022-08-21T03:44:14;3.00;;;2.20;;
1014;SDS011;8170;48.118;11.628;2022-08-21T03:45:18;2.80;;;2.30;;
1014;SDS011;8170;48.118;11.628;2022-08-21T03:46:21;2.28;;;2.10;;
1014;SDS011;8170;48.118;11.628;2022-08-21T03:47:24;2.40;;;2.20;;
1014;SDS011;8170;48.118;11.628;2022-08-21T03:48:26;2.33;;;2.13;;
1014;SDS011;8170;48.118;11.628;2022-08-21T03:49:29;2.13;;;1.92;;
1014;SDS011;8170;48.118;11.628;2022-08-21T03:50:32;2.28;;;2.08;;
1014;SDS011;8170;48.118;11.628;2022-08-21T03:51:41;2.47;;;2.28;;
1014;SDS011;8170;48.118;11.628;2022-08-21T03:52:43;3.35;;;2.30;;
1014;SDS011;8170;48.118;11.628;2022-08-21T03:53:46;2.30;;;2.10;;
1014;SDS011;8170;48.118;11.628;2022-08-21T03:54:49;2.85;;;2.60;;
1014;SDS011;8170;48.118;11.628;2022-08-21T03:55:52;2.35;;;2.15;;
1014;SDS011;8170;48.118;11.628;2022-08-21T03:56:56;2.65;;;2.45;;
1014;SDS011;8170;48.118;11.628;2022-08-21T03:57:59;4.25;;;2.55;;
1014;SDS011;8170;48.118;11.628;2022-08-21T03:59:17;4.65;;;2.85;;
1014;SDS011;8170;48.118;11.628;2022-08-21T04:00:21;2.58;;;2.10;;
1014;SDS011;8170;48.118;11.628;2022-08-21T04:01:24;3.47;;;3.00;;
1014;SDS011;8170;48.118;11.628;2022-08-21T04:02:27;4.22;;;2.83;;
1014;SDS011;8170;48.118;11.628;2022-08-21T04:03:30;2.75;;;2.55;;
1014;SDS011;8170;48.118;11.628;2022-08-21T04:04:33;2.45;;;2.08;;
1014;SDS011;8170;48.118;11.628;2022-08-21T04:05:36;3.90;;;2.05;;
1014;SDS011;8170;48.118;11.628;2022-08-21T04:06:40;2.00;;;1.90;;
1014;SDS011;8170;48.118;11.628;2022-08-21T04:07:43;3.50;;;2.33;;
1014;SDS011;8170;48.118;11.628;2022-08-21T04:08:45;2.53;;;2.33;;
1014;SDS011;8170;48.118;11.628;2022-08-21T04:09:49;3.97;;;2.70;;
1014;SDS011;8170;48.118;11.628;2022-08-21T04:10:52;3.05;;;2.30;;
1014;SDS011;8170;48.118;11.628;2022-08-21T04:11:59;2.95;;;2.75;;
1014;SDS011;8170;48.118;11.628;2022-08-21T04:13:02;2.90;;;2.40;;
1014;SDS011;8170;48.118;11.628;2022-08-21T04:14:06;2.38;;;2.20;;
1014;SDS011;8170;48.118;11.628;2022-08-21T04:15:08;2.30;;;2.10;;
1014;SDS011;8170;48.118;11.628;2022-08-21T04:16:12;2.08;;;1.92;;
1014;SDS011;8170;48.118;11.628;2022-08-21T04:17:15;2.20;;;2.00;;
1014;SDS011;8170;48.118;11.628;2022-08-21T04:18:18;2.72;;;2.13;;
1014;SDS011;8170;48.118;11.628;2022-08-21T04:19:20;2.80;;;2.47;;
1014;SDS011;8170;48.118;11.628;2022-08-21T04:20:25;3.65;;;2.28;;
1014;SDS011;8170;48.118;11.628;2022-08-21T04:21:27;3.15;;;2.35;;
1014;SDS011;8170;48.118;11.628;2022-08-21T04:22:31;4.90;;;2.08;;
1014;SDS011;8170;48.118;11.628;2022-08-21T04:23:33;4.28;;;2.40;;
1014;SDS011;8170;48.118;11.628;2022-08-21T04:24:37;3.85;;;2.70;;
1014;SDS011;8170;48.118;11.628;2022-08-21T04:25:39;2.40;;;2.20;;
1014;SDS011;8170;48.118;11.628;2022-08-21T04:26:43;2.47;;;2.22;;
1014;SDS011;8170;48.118;11.628;2022-08-21T04:27:46;2.30;;;2.10;;
1014;SDS011;8170;48.118;11.628;2022-08-21T04:28:49;2.40;;;2.20;;
1014;SDS011;8170;48.118;11.628;2022-08-21T04:29:52;2.05;;;1.85;;
1014;SDS011;8170;48.118;11.628;2022-08-21T04:30:55;2.40;;;2.20;;
1014;SDS011;8170;48.118;11.628;2022-08-21T04:31:57;2.80;;;2.60;;
1014;SDS011;8170;48.118;11.628;2022-08-21T04:33:01;2.55;;;2.28;;
1014;SDS011;8170;48.118;11.628;2022-08-21T04:34:04;3.85;;;2.38;;
1014;SDS011;8170;48.118;11.628;2022-08-21T04:35:08;2.38;;;2.00;;
1014;SDS011;8170;48.118;11.628;2022-08-21T04:36:12;3.35;;;2.30;;
1014;SDS011;8170;48.118;11.628;2022-08-21T04:37:15;4.32;;;2.50;;
1014;SDS011;8170;48.118;11.628;2022-08-21T04:38:17;1.95;;;1.80;;
1014;SDS011;8170;48.118;11.628;2022-08-21T04:39:21;2.33;;;2.13;;
1014;SDS011;8170;48.118;11.628;2022-08-21T04:40:29;2.30;;;2.10;;
1014;SDS011;8170;48.118;11.628;2022-08-21T04:41:33;2.60;;;2.15;;
1014;SDS011;8170;48.118;11.628;2022-08-21T04:42:40;2.25;;;1.80;;
1014;SDS011;8170;48.118;11.628;2022-08-21T04:43:46;2.55;;;2.35;;
1014;SDS011;8170;48.118;11.628;2022-08-21T04:44:49;3.05;;;2.25;;
1014;SDS011;8170;48.118;11.628;2022-08-21T04:45:52;2.40;;;2.20;;
1014;SDS011;8170;48.118;11.628;2022-08-21T04:46:56;2.83;;;2.40;;
1014;SDS011;8170;48.118;11.628;2022-08-21T04:47:59;2.10;;;1.90;;
1014;SDS011;8170;48.118;11.628;2022-08-21T04:49:03;2.60;;;2.40;;
1014;SDS011;8170;48.118;11.628;2022-08-21T04:50:07;2.40;;;2.20;;
1014;SDS011;8170;48.118;11.628;2022-08-21T04:51:27;1.90;;;1.70;;
1014;SDS011;8170;48.118;11.628;2022-08-21T04:52:33;1.63;;;1.50;;
1014;SDS011;8170;48.118;11.628;2022-08-21T04:53:36;3.28;;;2.25;;
1014;SDS011;8170;48.118;11.628;2022-08-21T04:54:42;2.35;;;2.15;;
1014;SDS011;8170;48.118;11.628;2022-08-21T04:55:46;2.67;;;2.00;;
1014;SDS011;8170;48.118;11.628;2022-08-21T04:56:51;2.05;;;1.90;;
1014;SDS011;8170;48.118;11.628;2022-08-21T04:57:56;2.53;;;1.90;;
1014;SDS011;8170;48.118;11.628;2022-08-21T04:59:03;2.28;;;2.08;;
1014;SDS011;8170;48.118;11.628;2022-08-21T05:00:08;2.55;;;2.35;;
1014;SDS011;8170;48.118;11.628;2022-08-21T05:01:20;2.20;;;2.00;;
1014;SDS011;8170;48.118;11.628;2022-08-21T05:02:25;2.45;;;2.20;;
1014;SDS011;8170;48.118;11.628;2022-08-21T05:03:28;1.88;;;1.77;;
1014;SDS011;8170;48.118;11.628;2022-08-21T05:04:33;1.90;;;1.80;;
1014;SDS011;8170;48.118;11.628;2022-08-21T05:05:40;2.95;;;2.33;;
1014;SDS011;8170;48.118;11.628;2022-08-21T05:06:43;2.22;;;2.03;;
1014;SDS011;8170;48.118;11.628;2022-08-21T05:07:49;1.75;;;1.65;;
1014;SDS011;8170;48.118;11.628;2022-08-21T05:08:52;2.10;;;1.88;;
1014;SDS011;8170;48.118;11.628;2022-08-21T05:10:02;1.80;;;1.70;;
1014;SDS011;8170;48.118;11.628;2022-08-21T05:11:06;2.55;;;1.70;;
1014;SDS011;8170;48.118;11.628;2022-08-21T05:12:09;1.63;;;1.52;;
1014;SDS011;8170;48.118;11.628;2022-08-21T05:13:12;2.22;;;1.40;;
1014;SDS011;8170;48.118;11.628;2022-08-21T05:14:17;1.92;;;1.50;;
1014;SDS011;8170;48.118;11.628;2022-08-21T05:15:20;1.40;;;1.30;;
1014;SDS011;8170;48.118;11.628;2022-08-21T05:16:24;2.40;;;1.35;;
1014;SDS011;8170;48.118;11.628;2022-08-21T05:17:37;2.55;;;1.40;;
1014;SDS011;8170;48.118;11.628;2022-08-21T05:18:41;1.58;;;1.10;;
1014;SDS011;8170;48.118;11.628;2022-08-21T05:19:43;1.45;;;1.00;;
1014;SDS011;8170;48.118;11.628;2022-08-21T05:20:46;1.20;;;1.00;;
1014;SDS011;8170;48.118;11.628;2022-08-21T05:21:48;1.20;;;1.10;;
1014;SDS011;8170;48.118;11.628;2022-08-21T05:22:52;1.20;;;1.10;;
1014;SDS011;8170;48.118;11.628;2022-08-21T05:23:55;1.92;;;1.25;;
1014;SDS011;8170;48.118;11.628;2022-08-21T05:24:58;2.55;;;1.10;;
1014;SDS011;8170;48.118;11.628;2022-08-21T05:26:01;3.67;;;1.08;;
1014;SDS011;8170;48.118;11.628;2022-08-21T05:27:18;1.20;;;1.10;;
1014;SDS011;8170;48.118;11.628;2022-08-21T05:28:20;1.40;;;1.30;;
1014;SDS011;8170;48.118;11.628;2022-08-21T05:29:25;1.45;;;1.35;;
1014;SDS011;8170;48.118;11.628;2022-08-21T05:30:27;1.60;;;1.30;;
1014;SDS011;8170;48.118;11.628;2022-08-21T05:31:30;1.30;;;1.20;;
1014;SDS011;8170;48.118;11.628;2022-08-21T05:32:36;1.90;;;1.00;;
1014;SDS011;8170;48.118;11.628;2022-08-21T05:33:39;1.30;;;1.00;;
1014;SDS011;8170;48.118;11.628;2022-08-21T05:34:44;1.63;;;1.05;;
1014;SDS011;8170;48.118;11.628;2022-08-21T05:35:51;1.30;;;1.20;;
1014;SDS011;8170;48.118;11.628;2022-08-21T05:36:57;2.67;;;1.58;;
1014;SDS011;8170;48.118;11.628;2022-08-21T05:38:07;2.13;;;1.00;;
1014;SDS011;8170;48.118;11.628;2022-08-21T05:39:18;1.20;;;1.00;;
1014;SDS011;8170;48.118;11.628;2022-08-21T05:40:21;2.55;;;1.20;;
1014;SDS011;8170;48.118;11.628;2022-08-21T05:41:24;2.63;;;1.10;;
1014;SDS011;8170;48.118;11.628;2022-08-21T05:42:27;1.20;;;0.90;;
1014;SDS011;8170;48.118;11.628;2022-08-21T05:43:30;1.20;;;0.90;;
1014;SDS011;8170;48.118;11.628;2022-08-21T05:44:35;2.75;;;1.30;;
1014;SDS011;8170;48.118;11.628;2022-08-21T05:45:38;1.20;;;1.10;;
1014;SDS011;8170;48.118;11.628;2022-08-21T05:46:44;1.83;;;1.23;;
1014;SDS011;8170;48.118;11.628;2022-08-21T05:47:47;1.50;;;1.10;;
1014;SDS011;8170;48.118;11.628;2022-08-21T05:48:49;2.63;;;1.50;;
1014;SDS011;8170;48.118;11.628;2022-08-21T05:49:52;1.50;;;1.10;;
1014;SDS011;8170;48.118;11.628;2022-08-21T05:50:54;1.50;;;1.30;;
1014;SDS011;8170;48.118;11.628;2022-08-21T05:51:57;2.53;;;1.25;;
1014;SDS011;8170;48.118;11.628;2022-08-21T05:53:00;3.05;;;1.30;;
1014;SDS011;8170;48.118;11.628;2022-08-21T05:54:08;1.20;;;1.10;;
1014;SDS011;8170;48.118;11.628;2022-08-21T05:55:13;1.30;;;1.20;;
1014;SDS011;8170;48.118;11.628;2022-08-21T05:56:15;1.33;;;1.15;;
1014;SDS011;8170;48.118;11.628;2022-08-21T05:57:22;1.40;;;1.20;;
1014;SDS011;8170;48.118;11.628;2022-08-21T05:58:25;2.80;;;1.40;;
1014;SDS011;8170;48.118;11.628;2022-08-21T05:59:30;1.55;;;1.10;;
1014;SDS011;8170;48.118;11.628;2022-08-21T06:00:36;2.15;;;1.67;;
1014;SDS011;8170;48.118;11.628;2022-08-21T06:01:45;1.50;;;1.13;;
1014;SDS011;8170;48.118;11.628;2022-08-21T06:02:48;1.52;;;1.40;;
1014;SDS011;8170;48.118;11.628;2022-08-21T06:03:52;1.50;;;1.40;;
1014;SDS011;8170;48.118;11.628;2022-08-21T06:05:07;1.80;;;1.38;;
1014;SDS011;8170;48.118;11.628;2022-08-21T06:06:12;1.58;;;1.48;;
1014;SDS011;8170;48.118;11.628;2022-08-21T06:07:18;2.85;;;1.77;;
1014;SDS011;8170;48.118;11.628;2022-08-21T06:08:22;1.90;;;1.40;;
1014;SDS011;8170;48.118;11.628;2022-08-21T06:09:26;1.20;;;1.05;;
1014;SDS011;8170;48.118;11.628;2022-08-21T06:10:28;1.85;;;1.35;;
1014;SDS011;8170;48.118;11.628;2022-08-21T06:11:32;1.40;;;1.00;;
1014;SDS011;8170;48.118;11.628;2022-08-21T06:12:35;1.88;;;1.38;;
1014;SDS011;8170;48.118;11.628;2022-08-21T06:13:42;1.67;;;1.25;;
1014;SDS011;8170;48.118;11.628;2022-08-21T06:14:44;1.50;;;1.20;;
1014;SDS011;8170;48.118;11.628;2022-08-21T06:15:50;1.60;;;1.20;;
1014;SDS011;8170;48.118;11.628;2022-08-21T06:17:02;1.58;;;1.00;;
1014;SDS011;8170;48.118;11.628;2022-08-21T06:18:10;1.48;;;1.38;;
1014;SDS011;8170;48.118;11.628;2022-08-21T06:19:13;1.60;;;1.20;;
1014;SDS011;8170;48.118;11.628;2022-08-21T06:20:16;2.03;;;1.48;;
1014;SDS011;8170;48.118;11.628;2022-08-21T06:21:18;1.70;;;1.40;;
1014;SDS011;8170;48.118;11.628;2022-08-21T06:22:22;1.35;;;1.10;;
1014;SDS011;8170;48.118;11.628;2022-08-21T06:23:24;1.92;;;1.42;;
1014;SDS011;8170;48.118;11.628;2022-08-21T06:24:33;1.77;;;1.67;;
1014;SDS011;8170;48.118;11.628;2022-08-21T06:25:37;1.77;;;1.67;;
1014;SDS011;8170;48.118;11.628;2022-08-21T06:26:40;3.13;;;1.60;;
1014;SDS011;8170;48.118;11.628;2022-08-21T06:27:43;1.35;;;1.25;;
1014;SDS011;8170;48.118;11.628;2022-08-21T06:28:45;1.92;;;1.27;;
1014;SDS011;8170;48.118;11.628;2022-08-21T06:29:48;1.73;;;1.25;;
1014;SDS011;8170;48.118;11.628;2022-08-21T06:30:52;1.83;;;1.30;;
1014;SDS011;8170;48.118;11.628;2022-08-21T06:31:55;3.38;;;1.60;;
1014;SDS011;8170;48.118;11.628;2022-08-21T06:32:57;1.23;;;1.10;;